Time;durP1;ratioP1;P1;durP2;ratioP2;P2;SDS_P1;SDS_P2;PMS_P1;PMS_P2;Temp;Humidity;BMP_temperature;BMP_pressure;BME280_temperature;BME280_humidity;BME280_pressure;Samples;Min_cycle;Max_cycle;Signal;HPM_P1;HPM_P2
2023/07/12 00:01:24;;;;;;;2.83;2.27;;;23.00;99.90;;;23.42;nan;100049.28;5017294;28;20633;-69
2023/07/12 00:03:54;;;;;;;2.83;2.40;;;22.90;99.90;;;23.40;nan;100061.97;5028449;28;21009;-68
2023/07/12 00:06:36;;;;;;;2.63;2.40;;;22.90;99.90;;;23.37;nan;100064.22;5027869;28;20704;-68
2023/07/12 00:09:12;;;;;;;1.83;1.73;;;22.80;99.90;;;23.32;nan;100072.78;5010564;28;20676;-68
2023/07/12 00:11:41;;;;;;;2.13;1.90;;;22.80;99.90;;;23.28;nan;100070.72;5020564;28;20621;-68
2023/07/12 00:14:08;;;;;;;2.20;2.00;;;22.80;99.90;;;23.26;nan;100080.78;5044550;28;20623;-68
2023/07/12 00:16:38;;;;;;;3.43;2.73;;;22.70;99.90;;;23.28;nan;100078.72;5026133;28;21201;-71
2023/07/12 00:19:08;;;;;;;2.80;2.47;;;22.70;99.90;;;23.26;nan;100073.59;5012749;28;21440;-68
2023/07/12 00:21:35;;;;;;;2.90;2.57;;;22.70;99.90;;;23.22;nan;100068.91;5022862;28;20616;-68
2023/07/12 00:24:02;;;;;;;5.23;2.80;;;22.70;99.90;;;23.23;nan;100090.00;5027094;28;20627;-66
2023/07/12 00:26:38;;;;;;;3.60;3.17;;;22.70;99.90;;;23.23;nan;100086.53;5027727;28;20638;-68
2023/07/12 00:29:08;;;;;;;3.17;2.90;;;22.70;99.90;;;23.21;nan;100086.72;5020045;28;21224;-69
2023/07/12 00:31:36;;;;;;;4.70;2.93;;;22.70;99.90;;;23.22;nan;100074.22;5018456;28;20637;-67
2023/07/12 00:34:04;;;;;;;4.13;3.50;;;22.70;99.90;;;23.21;nan;100069.94;5017514;28;20640;-70
2023/07/12 00:36:32;;;;;;;4.20;3.30;;;22.70;99.90;;;23.18;nan;100063.19;5018150;28;20629;-68
2023/07/12 00:39:01;;;;;;;3.17;2.87;;;22.60;99.90;;;23.10;nan;100066.88;5020195;28;20665;-72
2023/07/12 00:41:49;;;;;;;3.23;2.63;;;22.60;99.90;;;23.10;nan;100063.38;5026371;28;20645;-69
2023/07/12 00:44:26;;;;;;;7.83;3.17;;;22.60;99.90;;;23.11;nan;100062.34;5031006;28;20640;-68
2023/07/12 00:46:56;;;;;;;2.27;2.03;;;22.60;99.90;;;23.12;nan;100056.84;5025463;28;20625;-68
2023/07/12 00:49:25;;;;;;;2.70;2.50;;;22.60;99.90;;;23.12;nan;100050.69;5032752;28;20661;-71
2023/07/12 00:52:10;;;;;;;2.60;2.23;;;22.60;99.90;;;23.13;nan;100052.31;5028393;28;20641;-69
2023/07/12 00:55:44;;;;;;;2.83;2.63;;;22.60;99.90;;;23.06;nan;100057.63;5042840;28;20626;-71
2023/07/12 00:58:12;;;;;;;2.13;1.77;;;22.50;99.90;;;23.04;nan;100059.69;5023277;28;20668;-71
2023/07/12 01:00:39;;;;;;;6.83;2.43;;;22.50;99.90;;;22.97;nan;100074.84;5031792;28;20645;-68
2023/07/12 01:03:07;;;;;;;2.40;2.20;;;22.50;99.90;;;22.95;nan;100076.06;5027000;28;21172;-70
2023/07/12 01:05:36;;;;;;;3.20;2.20;;;22.50;99.90;;;22.93;nan;100070.13;5029013;28;20648;-69
2023/07/12 01:08:03;;;;;;;2.10;1.60;;;22.40;99.90;;;22.91;nan;100077.50;5033029;28;20682;-68
2023/07/12 01:10:30;;;;;;;1.90;1.73;;;22.40;99.90;;;22.93;nan;100072.78;5016375;28;21031;-69
2023/07/12 01:12:57;;;;;;;1.97;1.77;;;22.40;99.90;;;22.93;nan;100060.31;5032366;28;20617;-69
2023/07/12 01:15:24;;;;;;;2.40;1.80;;;22.40;99.90;;;22.99;nan;100051.50;5030783;28;21029;-71
2023/07/12 01:17:51;;;;;;;2.03;1.83;;;22.50;99.90;;;22.99;nan;100054.19;5020491;28;20743;-69
2023/07/12 01:20:22;;;;;;;2.80;2.40;;;22.50;99.90;;;22.93;nan;100055.00;5020490;28;20639;-69
2023/07/12 01:22:53;;;;;;;4.40;2.70;;;22.50;99.90;;;22.92;nan;100056.00;5031975;28;20608;-68
2023/07/12 01:25:45;;;;;;;2.20;2.10;;;22.50;99.90;;;22.90;nan;100057.22;5019504;28;20637;-68
2023/07/12 01:28:12;;;;;;;1.90;1.80;;;22.40;99.90;;;22.89;nan;100051.06;5012539;28;20685;-69
2023/07/12 01:30:40;;;;;;;2.83;2.47;;;22.40;99.90;;;22.90;nan;100054.56;5017655;28;20633;-68
2023/07/12 01:33:08;;;;;;;2.90;2.10;;;22.40;99.90;;;22.87;nan;100045.13;5028318;28;20639;-69
2023/07/12 01:35:35;;;;;;;2.40;2.20;;;22.40;99.90;;;22.86;nan;100038.19;5024565;28;20644;-68
2023/07/12 01:38:02;;;;;;;3.63;1.73;;;22.40;99.90;;;22.84;nan;100026.94;5030693;28;20675;-68
2023/07/12 01:40:29;;;;;;;2.00;1.80;;;22.30;99.90;;;22.82;nan;100020.19;5030522;28;20628;-69
2023/07/12 01:42:56;;;;;;;1.57;1.57;;;22.30;99.90;;;22.81;nan;100024.69;5045806;28;21009;-66
2023/07/12 01:45:23;;;;;;;3.37;2.00;;;22.30;99.90;;;22.82;nan;100026.34;5029895;28;21117;-69
2023/07/12 01:47:50;;;;;;;2.13;1.70;;;22.30;99.90;;;22.83;nan;100012.00;5017302;28;20668;-67
2023/07/12 01:50:17;;;;;;;1.80;1.63;;;22.30;99.90;;;22.76;nan;100011.19;5016920;28;20633;-69
2023/07/12 01:52:44;;;;;;;3.93;2.40;;;22.20;99.90;;;22.77;nan;100004.00;5026236;28;21194;-69
2023/07/12 01:55:11;;;;;;;1.90;1.77;;;22.20;99.90;;;22.76;nan;99997.91;5021349;28;21187;-70
2023/07/12 01:57:38;;;;;;;2.20;1.90;;;22.20;99.90;;;22.76;nan;99986.44;5021449;28;20672;-71
2023/07/12 02:00:06;;;;;;;2.60;1.73;;;22.20;99.90;;;22.80;nan;99987.66;5017433;28;21176;-70
2023/07/12 02:02:33;;;;;;;1.73;1.40;;;22.30;99.90;;;22.84;nan;99987.06;5028671;28;20644;-71
2023/07/12 02:05:00;;;;;;;2.13;1.90;;;22.30;99.90;;;22.86;nan;99977.03;5015620;28;20641;-69
2023/07/12 02:07:27;;;;;;;2.23;1.97;;;22.40;99.90;;;22.86;nan;99979.69;5022466;28;20672;-69
2023/07/12 02:10:18;;;;;;;2.33;2.07;;;22.30;99.90;;;22.85;nan;99983.34;5018194;28;20718;-71
2023/07/12 02:12:46;;;;;;;2.00;1.50;;;22.30;99.90;;;22.83;nan;99976.63;5023265;28;20620;-71
2023/07/12 02:15:14;;;;;;;2.00;1.90;;;22.30;99.90;;;22.85;nan;99977.22;5022940;28;20643;-68
2023/07/12 02:17:41;;;;;;;2.00;1.90;;;22.30;99.90;;;22.85;nan;99972.72;5021169;28;20665;-68
2023/07/12 02:20:10;;;;;;;2.30;2.10;;;22.30;99.90;;;22.87;nan;99969.88;5017269;28;20625;-68
2023/07/12 02:22:43;;;;;;;1.70;1.60;;;22.30;99.90;;;22.87;nan;99975.19;5024526;28;20621;-71
2023/07/12 02:25:11;;;;;;;1.80;1.70;;;22.30;99.90;;;22.87;nan;99978.66;5018769;28;21204;-68
2023/07/12 02:27:40;;;;;;;2.20;2.00;;;22.30;99.90;;;22.90;nan;99980.09;5035136;28;20656;-69
2023/07/12 02:30:22;;;;;;;2.20;2.10;;;22.40;99.90;;;22.91;nan;99971.09;5018100;28;20718;-68
2023/07/12 02:32:50;;;;;;;2.80;2.17;;;22.40;99.90;;;22.89;nan;99967.81;5016754;28;20612;-69
2023/07/12 02:35:19;;;;;;;3.00;1.80;;;22.40;99.90;;;22.88;nan;99959.00;5018873;28;20617;-69
2023/07/12 02:37:46;;;;;;;1.73;1.63;;;22.40;99.90;;;22.86;nan;99963.72;5026522;28;20671;-68
2023/07/12 02:40:14;;;;;;;2.60;1.37;;;22.30;99.90;;;22.87;nan;99953.91;5022753;28;20632;-69
2023/07/12 02:42:42;;;;;;;1.70;1.60;;;22.40;99.90;;;22.83;nan;99950.81;5023664;28;20644;-69
2023/07/12 02:45:09;;;;;;;2.63;2.07;;;22.30;99.90;;;22.78;nan;99955.97;5015274;28;20624;-70
2023/07/12 02:47:36;;;;;;;2.53;2.00;;;22.30;99.90;;;22.78;nan;99942.66;5023874;28;20704;-71
2023/07/12 02:50:05;;;;;;;1.67;1.57;;;22.30;99.90;;;22.77;nan;99951.66;5029340;28;20687;-69
2023/07/12 02:52:33;;;;;;;1.80;1.70;;;22.20;99.90;;;22.76;nan;99958.00;5026310;28;20644;-72
2023/07/12 02:55:00;;;;;;;1.87;1.77;;;22.20;99.90;;;22.75;nan;99955.53;5012009;28;20648;-69
2023/07/12 02:57:27;;;;;;;5.70;1.90;;;22.20;99.90;;;22.72;nan;99959.41;5023040;28;20656;-72
2023/07/12 02:59:54;;;;;;;1.70;1.60;;;22.20;99.90;;;22.71;nan;99952.47;5027387;28;20621;-69
2023/07/12 03:02:22;;;;;;;2.03;1.87;;;22.20;99.90;;;22.69;nan;99962.50;5023564;28;20989;-68
2023/07/12 03:04:50;;;;;;;1.87;1.77;;;22.20;99.90;;;22.70;nan;99958.78;5030172;28;20637;-69
2023/07/12 03:07:17;;;;;;;2.07;1.97;;;22.20;99.90;;;22.67;nan;99967.19;5026539;28;21252;-70
2023/07/12 03:09:44;;;;;;;1.83;1.73;;;22.20;99.90;;;22.65;nan;99974.56;5023395;28;20665;-69
2023/07/12 03:12:11;;;;;;;2.03;1.93;;;22.10;99.90;;;22.61;nan;99977.84;5029696;28;20640;-69
2023/07/12 03:14:38;;;;;;;2.50;2.30;;;22.10;99.90;;;22.55;nan;99978.63;5018044;28;20641;-69
2023/07/12 03:17:05;;;;;;;2.37;2.17;;;22.00;99.90;;;22.57;nan;99987.22;5030050;28;20651;-68
2023/07/12 03:19:36;;;;;;;3.97;2.20;;;22.10;99.90;;;22.53;nan;99973.47;5030035;28;20682;-69
2023/07/12 03:22:03;;;;;;;2.27;2.07;;;22.00;99.90;;;22.50;nan;99979.22;5020257;28;20648;-70
2023/07/12 03:24:30;;;;;;;2.60;1.90;;;22.00;99.90;;;22.49;nan;99977.56;5030234;28;20625;-68
2023/07/12 03:26:57;;;;;;;2.30;1.67;;;22.00;99.90;;;22.45;nan;99979.00;5020853;28;20637;-69
2023/07/12 03:29:24;;;;;;;2.03;1.87;;;22.00;99.90;;;22.39;nan;99980.63;5012070;28;20669;-69
2023/07/12 03:31:51;;;;;;;2.17;1.87;;;21.90;99.90;;;22.38;nan;99983.50;5025022;28;20620;-71
2023/07/12 03:34:18;;;;;;;7.30;2.13;;;21.90;99.90;;;22.35;nan;99966.13;5012337;28;20636;-68
2023/07/12 03:36:45;;;;;;;2.13;1.97;;;21.90;99.90;;;22.33;nan;99970.00;5018992;28;20990;-70
2023/07/12 03:39:12;;;;;;;4.50;1.90;;;21.80;99.90;;;22.34;nan;99966.28;5028541;28;20652;-69
2023/07/12 03:41:39;;;;;;;2.53;2.00;;;21.80;99.90;;;22.34;nan;99975.09;5019583;28;20648;-71
2023/07/12 03:44:06;;;;;;;1.53;1.43;;;21.80;99.90;;;22.35;nan;99973.25;5019756;28;20638;-69
2023/07/12 03:46:35;;;;;;;2.93;2.50;;;21.80;99.90;;;22.34;nan;99964.47;5025473;28;20652;-72
2023/07/12 03:49:02;;;;;;;5.80;1.97;;;21.90;99.90;;;22.31;nan;99964.06;5028175;28;21273;-68
2023/07/12 03:51:29;;;;;;;2.30;2.07;;;21.80;99.90;;;22.28;nan;99959.13;5019287;28;20629;-69
2023/07/12 03:53:56;;;;;;;2.43;2.00;;;21.80;99.90;;;22.26;nan;99964.66;5017334;28;20652;-70
2023/07/12 03:56:23;;;;;;;3.10;1.70;;;21.80;99.90;;;22.26;nan;99963.84;5026720;28;20640;-71
2023/07/12 03:58:50;;;;;;;1.90;1.80;;;21.80;99.90;;;22.30;nan;99983.66;5028900;28;21247;-66
2023/07/12 04:01:18;;;;;;;4.97;2.97;;;21.80;99.90;;;22.33;nan;99992.06;5020605;28;20680;-71
2023/07/12 04:03:46;;;;;;;2.10;2.00;;;21.80;99.90;;;22.30;nan;99984.50;5027642;28;20650;-68
2023/07/12 04:06:13;;;;;;;2.50;1.97;;;21.80;99.90;;;22.26;nan;99993.91;5020166;28;21511;-69
2023/07/12 04:08:40;;;;;;;2.30;2.10;;;21.80;99.90;;;22.27;nan;100008.00;5025321;28;21224;-67
2023/07/12 04:11:29;;;;;;;1.87;1.77;;;21.80;99.90;;;22.26;nan;100003.69;5010138;28;21207;-69
2023/07/12 04:13:59;;;;;;;1.90;1.80;;;21.80;99.90;;;22.28;nan;100014.94;5012601;28;20663;-66
2023/07/12 04:16:26;;;;;;;2.50;1.70;;;21.80;99.90;;;22.30;nan;100013.72;5025788;28;20621;-70
2023/07/12 04:18:53;;;;;;;2.47;2.27;;;21.80;99.90;;;22.29;nan;100016.59;5011290;28;21096;-67
2023/07/12 04:21:21;;;;;;;2.10;2.00;;;21.80;99.90;;;22.29;nan;100020.09;5015726;28;20633;-68
2023/07/12 04:23:49;;;;;;;2.37;1.97;;;21.80;99.90;;;22.23;nan;100025.38;5017085;28;20673;-69
2023/07/12 04:26:17;;;;;;;2.77;2.40;;;21.80;99.90;;;22.21;nan;100035.38;5023758;28;20651;-67
2023/07/12 04:28:49;;;;;;;1.93;1.83;;;21.70;99.90;;;22.25;nan;100039.28;5024791;28;20672;-67
2023/07/12 04:31:19;;;;;;;2.13;1.77;;;21.80;99.90;;;22.29;nan;100051.97;5012993;28;20624;-67
2023/07/12 04:33:48;;;;;;;4.57;2.33;;;21.80;99.90;;;22.42;nan;100057.31;5010109;28;20614;-69
2023/07/12 04:36:17;;;;;;;4.20;2.40;;;21.90;99.90;;;22.65;nan;100064.97;5010620;28;20632;-68
2023/07/12 04:38:44;;;;;;;3.27;2.10;;;22.10;99.90;;;22.82;nan;100060.91;5012547;28;21231;-68
2023/07/12 04:41:12;;;;;;;3.13;1.87;;;22.30;99.90;;;22.98;nan;100054.34;5012833;28;21192;-68
2023/07/12 04:43:39;;;;;;;2.07;1.97;;;22.50;99.90;;;23.09;nan;100067.88;5018895;28;20671;-68
2023/07/12 04:46:07;;;;;;;2.77;2.53;;;22.60;99.90;;;23.11;nan;100075.66;5023277;28;21439;-67
2023/07/12 04:48:34;;;;;;;2.40;2.20;;;22.60;99.90;;;23.12;nan;100075.47;5012704;28;21251;-68
2023/07/12 04:51:03;;;;;;;2.57;2.37;;;22.70;99.90;;;23.17;nan;100080.97;5029846;28;20667;-69
2023/07/12 04:53:31;;;;;;;2.47;2.30;;;22.70;99.90;;;23.32;nan;100093.28;5026431;28;21227;-68
2023/07/12 04:55:58;;;;;;;4.80;3.10;;;22.80;99.90;;;23.46;nan;100087.78;5023219;28;20652;-70
2023/07/12 04:58:26;;;;;;;6.23;2.57;;;22.90;99.90;;;23.69;nan;100101.47;5027539;28;21037;-70
2023/07/12 05:00:55;;;;;;;2.57;2.37;;;23.10;99.90;;;23.99;nan;100093.81;5013874;28;20644;-68
2023/07/12 05:03:22;;;;;;;3.00;2.60;;;23.40;99.90;;;24.23;nan;100100.31;5024512;28;20628;-69
2023/07/12 05:05:49;;;;;;;2.27;2.07;;;23.70;99.90;;;24.35;nan;100111.94;5027130;28;20638;-69
2023/07/12 05:08:16;;;;;;;3.83;2.30;;;23.90;99.90;;;24.26;nan;100108.69;5025819;28;20652;-68
2023/07/12 05:10:44;;;;;;;3.50;2.37;;;23.80;99.90;;;24.15;nan;100119.22;5025549;28;20688;-69
2023/07/12 05:13:11;;;;;;;2.10;2.00;;;23.70;99.90;;;24.04;nan;100117.16;5027549;28;20624;-70
2023/07/12 05:15:38;;;;;;;7.17;2.40;;;23.60;99.90;;;23.87;nan;100128.25;5027672;28;20631;-68
2023/07/12 05:18:06;;;;;;;1.93;1.83;;;23.40;99.90;;;23.79;nan;100140.97;5033376;28;20644;-70
2023/07/12 05:20:33;;;;;;;2.80;2.00;;;23.30;99.90;;;23.81;nan;100157.56;5015479;28;20641;-67
2023/07/12 05:23:00;;;;;;;3.03;2.73;;;23.30;99.90;;;23.81;nan;100163.72;5012710;28;20598;-68
2023/07/12 05:25:27;;;;;;;2.53;2.37;;;23.30;99.90;;;23.87;nan;100162.88;5012162;28;20621;-67
2023/07/12 05:27:54;;;;;;;3.23;3.00;;;23.40;99.90;;;23.97;nan;100161.66;5029649;28;20680;-67
2023/07/12 05:30:21;;;;;;;3.17;2.97;;;23.40;99.90;;;24.06;nan;100176.44;5031369;28;20652;-69
2023/07/12 05:32:48;;;;;;;4.13;2.57;;;23.50;99.90;;;24.10;nan;100175.00;5027390;28;20642;-67
2023/07/12 05:35:15;;;;;;;2.03;1.93;;;23.60;99.90;;;24.00;nan;100167.38;5025907;28;20636;-69
2023/07/12 05:37:43;;;;;;;3.27;2.50;;;23.50;99.90;;;23.84;nan;100160.66;5023454;28;20660;-68
2023/07/12 05:40:10;;;;;;;2.53;2.33;;;23.40;99.90;;;23.68;nan;100173.59;5023949;28;21203;-70
2023/07/12 05:42:40;;;;;;;3.60;3.07;;;23.20;99.90;;;23.57;nan;100176.88;5019636;28;20625;-67
2023/07/12 05:45:14;;;;;;;3.10;2.70;;;23.10;99.90;;;23.56;nan;100184.03;5024718;28;21433;-68
2023/07/12 05:47:42;;;;;;;2.77;2.50;;;23.10;99.90;;;23.54;nan;100182.59;5022583;28;20662;-70
2023/07/12 05:50:16;;;;;;;3.50;2.57;;;23.10;99.90;;;23.54;nan;100183.41;5025741;28;20676;-70
2023/07/12 05:52:43;;;;;;;6.57;3.13;;;23.00;99.90;;;23.54;nan;100180.75;5016611;28;20639;-68
2023/07/12 05:55:17;;;;;;;3.23;2.93;;;23.00;99.90;;;23.55;nan;100179.72;5030216;28;20643;-68
2023/07/12 05:57:45;;;;;;;3.37;3.07;;;23.00;99.90;;;23.57;nan;100177.69;5043073;28;20656;-68
2023/07/12 06:00:13;;;;;;;2.40;2.20;;;23.00;99.90;;;23.59;nan;100180.16;5013151;28;20633;-68
2023/07/12 06:02:40;;;;;;;4.27;2.27;;;23.10;99.90;;;23.60;nan;100177.25;5022939;28;21200;-68
2023/07/12 06:05:08;;;;;;;5.80;2.50;;;23.10;99.90;;;23.65;nan;100180.16;5019993;28;20633;-68
2023/07/12 06:07:35;;;;;;;4.70;2.50;;;23.10;99.90;;;23.75;nan;100179.72;5018765;28;20746;-70
2023/07/12 06:10:02;;;;;;;2.73;1.97;;;23.20;99.90;;;23.94;nan;100175.41;5030746;28;20667;-69
2023/07/12 06:12:29;;;;;;;3.40;2.90;;;23.40;99.90;;;24.14;nan;100185.03;5016217;28;20728;-68
2023/07/12 06:14:56;;;;;;;3.63;2.90;;;23.60;99.90;;;24.31;nan;100172.88;5017969;28;20621;-68
2023/07/12 06:17:23;;;;;;;3.37;2.60;;;23.70;99.90;;;24.66;nan;100174.16;5022862;28;20664;-68
2023/07/12 06:19:50;;;;;;;3.77;3.27;;;24.10;99.90;;;25.13;nan;100169.44;5019724;28;20622;-68
2023/07/12 06:22:17;;;;;;;3.93;3.10;;;24.50;99.90;;;25.80;nan;100174.91;5019109;28;21010;-69
2023/07/12 06:24:44;;;;;;;4.67;2.87;;;25.10;99.90;;;26.37;nan;100176.38;5023786;28;20649;-68
2023/07/12 06:27:13;;;;;;;2.70;2.50;;;25.70;99.90;;;26.94;nan;100177.72;5029306;28;20681;-68
2023/07/12 06:29:41;;;;;;;3.87;3.50;;;26.20;99.90;;;27.24;nan;100181.22;5021726;28;20677;-66
2023/07/12 06:32:13;;;;;;;5.00;4.03;;;26.60;99.90;;;27.34;nan;100180.66;5024640;28;21408;-70
2023/07/12 06:34:40;;;;;;;3.87;3.57;;;26.80;99.90;;;27.48;nan;100174.91;5026535;28;20617;-68
2023/07/12 06:37:10;;;;;;;4.50;3.53;;;26.90;99.90;;;27.85;nan;100180.06;5024449;28;20668;-69
2023/07/12 06:39:37;;;;;;;4.33;3.93;;;27.30;99.90;;;27.94;nan;100181.34;5015260;28;20629;-68
2023/07/12 06:42:05;;;;;;;4.30;3.50;;;27.40;99.90;;;27.99;nan;100178.78;5009907;28;20649;-69
2023/07/12 06:44:33;;;;;;;6.30;4.10;;;27.50;99.90;;;27.94;nan;100189.38;5014458;28;20620;-68
2023/07/12 06:46:59;;;;;;;4.93;4.43;;;27.50;99.90;;;28.01;nan;100187.41;5010879;28;20614;-68
2023/07/12 06:49:26;;;;;;;5.03;3.73;;;27.50;99.90;;;27.82;nan;100196.59;5017331;28;20657;-68
2023/07/12 06:51:53;;;;;;;4.33;3.93;;;27.40;99.90;;;27.61;nan;100201.47;5028202;28;20636;-68
2023/07/12 06:54:21;;;;;;;7.20;4.20;;;27.20;99.90;;;27.60;nan;100205.19;5012912;28;20645;-68
2023/07/12 06:56:48;;;;;;;5.90;4.23;;;27.10;99.90;;;27.50;nan;100209.50;5029380;28;20613;-67
2023/07/12 06:59:15;;;;;;;4.70;4.23;;;27.00;99.90;;;27.36;nan;100208.91;5028565;28;20641;-68
2023/07/12 07:01:42;;;;;;;18.40;4.27;;;26.90;99.90;;;27.23;nan;100210.91;5029949;28;20636;-67
2023/07/12 07:04:09;;;;;;;5.17;4.27;;;26.80;99.90;;;27.12;nan;100209.81;5023579;28;20641;-69
2023/07/12 07:06:36;;;;;;;8.70;4.63;;;26.60;99.90;;;27.43;nan;100206.13;5030811;28;21092;-68
2023/07/12 07:09:03;;;;;;;6.97;5.20;;;26.90;99.90;;;27.76;nan;100213.59;5024179;28;20664;-68
2023/07/12 07:11:30;;;;;;;5.33;4.80;;;27.20;99.90;;;27.93;nan;100211.88;5014400;28;20673;-69
2023/07/12 07:13:57;;;;;;;7.67;4.87;;;27.40;99.90;;;27.98;nan;100209.34;5023235;28;20637;-68
2023/07/12 07:16:25;;;;;;;7.53;5.70;;;27.50;99.90;;;27.79;nan;100207.78;5022789;28;21180;-67
2023/07/12 07:18:54;;;;;;;6.10;5.20;;;27.30;99.90;;;27.76;nan;100221.66;5008771;28;20676;-69
2023/07/12 07:21:21;;;;;;;6.33;5.33;;;27.20;99.90;;;27.93;nan;100211.88;5024574;28;20629;-68
2023/07/12 07:23:48;;;;;;;5.23;4.60;;;27.40;99.90;;;27.86;nan;100211.16;5024047;28;21199;-68
2023/07/12 07:26:16;;;;;;;10.20;5.60;;;27.30;99.90;;;28.71;nan;100215.78;5010437;28;20640;-69
2023/07/12 07:28:43;;;;;;;7.63;5.90;;;28.00;99.90;;;29.31;nan;100212.63;5005541;28;20670;-70
2023/07/12 07:31:10;;;;;;;5.90;4.60;;;28.70;99.90;;;29.46;nan;100215.59;5007975;28;20676;-69
2023/07/12 07:33:39;;;;;;;6.50;5.50;;;28.90;99.90;;;30.17;nan;100222.94;5009972;28;20637;-69
2023/07/12 07:36:11;;;;;;;7.97;6.10;;;29.50;99.90;;;30.81;nan;100235.66;5009416;28;20990;-69
2023/07/12 07:38:38;;;;;;;7.20;5.80;;;30.20;99.90;;;31.38;nan;100228.72;5006706;28;20676;-68
2023/07/12 07:41:09;;;;;;;6.73;5.33;;;30.70;99.90;;;32.12;nan;100232.31;5008393;28;20646;-69
2023/07/12 07:43:39;;;;;;;7.50;5.80;;;31.50;99.90;;;32.70;nan;100236.69;5016195;28;20633;-68
2023/07/12 07:46:12;;;;;;;5.13;4.63;;;32.10;99.90;;;34.02;nan;100237.75;5014285;28;20633;-68
2023/07/12 07:48:40;;;;;;;5.40;4.90;;;33.20;99.90;;;34.66;nan;100230.53;5014222;28;20662;-67
2023/07/12 07:51:08;;;;;;;6.00;5.37;;;34.10;97.70;;;35.46;nan;100229.25;5028731;28;20651;-67
2023/07/12 07:53:36;;;;;;;5.23;4.60;;;34.80;96.10;;;36.47;nan;100231.06;5020378;28;20671;-67
2023/07/12 07:56:03;;;;;;;6.10;4.87;;;35.80;93.50;;;37.31;nan;100235.66;5030314;28;20641;-69
2023/07/12 07:58:30;;;;;;;5.83;5.23;;;36.70;91.10;;;37.05;nan;100231.69;5023228;28;20668;-69
2023/07/12 08:00:57;;;;;;;4.47;4.00;;;36.60;88.00;;;37.30;nan;100228.56;5022224;28;20641;-69
2023/07/12 08:03:24;;;;;;;4.13;3.83;;;36.90;85.00;;;38.03;nan;100226.84;5019762;28;20633;-69
2023/07/12 08:05:52;;;;;;;4.87;4.37;;;37.60;81.70;;;38.85;nan;100226.81;5023686;28;20644;-69
2023/07/12 08:08:20;;;;;;;6.70;4.50;;;38.30;78.90;;;39.81;nan;100228.09;5019935;28;20675;-70
2023/07/12 08:10:47;;;;;;;7.20;5.10;;;39.10;75.10;;;40.61;nan;100227.81;5023326;28;21269;-70
2023/07/12 08:13:14;;;;;;;4.30;4.00;;;39.90;72.90;;;40.89;nan;100226.44;5014945;28;20645;-69
2023/07/12 08:15:42;;;;;;;5.40;4.60;;;40.50;68.60;;;40.64;nan;100229.09;5024860;28;20989;-69
2023/07/12 08:18:11;;;;;;;5.03;4.70;;;40.30;68.10;;;40.99;nan;100225.31;5008885;28;21265;-70
2023/07/12 08:20:40;;;;;;;8.23;4.20;;;40.50;67.40;;;41.30;nan;100227.91;5026742;28;20636;-68
2023/07/12 08:23:08;;;;;;;4.10;3.80;;;40.90;64.50;;;41.51;nan;100237.09;5017896;28;20641;-70
2023/07/12 08:25:35;;;;;;;4.10;3.70;;;41.10;63.60;;;41.07;nan;100229.97;5018099;28;20674;-69
2023/07/12 08:28:03;;;;;;;4.53;4.07;;;40.80;63.10;;;40.35;nan;100229.66;5022088;28;20657;-68
2023/07/12 08:30:30;;;;;;;4.97;4.57;;;40.20;62.70;;;40.05;nan;100228.56;5009605;28;20665;-68
2023/07/12 08:32:58;;;;;;;6.10;4.20;;;39.70;63.20;;;39.79;nan;100230.34;5013714;28;20636;-67
2023/07/12 08:35:26;;;;;;;4.53;4.13;;;39.60;62.60;;;39.66;nan;100233.13;5026409;28;20620;-70
2023/07/12 08:38:08;;;;;;;5.13;4.63;;;39.40;63.20;;;39.19;nan;100232.63;5010930;28;21533;-68
2023/07/12 08:40:44;;;;;;;4.87;4.43;;;38.90;64.50;;;39.66;nan;100236.69;5023868;28;20643;-70
2023/07/12 08:43:18;;;;;;;3.57;3.30;;;39.20;63.90;;;40.08;nan;100240.81;5020593;28;20644;-69
2023/07/12 08:45:48;;;;;;;4.80;4.50;;;39.70;61.90;;;39.37;nan;100239.03;5016474;28;20644;-68
2023/07/12 08:48:21;;;;;;;6.53;5.00;;;39.10;62.50;;;37.95;nan;100237.63;5031195;28;21501;-67
2023/07/12 08:50:49;;;;;;;4.17;3.87;;;37.80;64.00;;;36.72;nan;100236.16;5021334;28;20653;-69
2023/07/12 08:53:22;;;;;;;4.17;3.77;;;36.50;65.50;;;36.14;nan;100235.47;5028253;28;20631;-69
2023/07/12 08:55:50;;;;;;;4.63;4.30;;;35.70;67.20;;;35.55;nan;100229.47;5007567;28;21467;-68
2023/07/12 08:58:21;;;;;;;4.40;4.03;;;35.10;68.20;;;35.16;nan;100240.34;5026727;28;20666;-68
2023/07/12 09:01:05;;;;;;;4.10;3.80;;;34.60;69.50;;;34.73;nan;100231.06;5031098;28;20620;-67
2023/07/12 09:03:32;;;;;;;2.80;2.63;;;34.20;69.40;;;34.19;nan;100232.84;5026564;28;21164;-68
2023/07/12 09:06:00;;;;;;;3.10;2.90;;;33.70;69.00;;;33.61;nan;100234.22;5017458;28;20993;-67
2023/07/12 09:08:35;;;;;;;5.20;4.50;;;33.10;70.20;;;32.94;nan;100239.75;5028505;28;20680;-66
2023/07/12 09:11:02;;;;;;;13.40;4.43;;;32.50;71.20;;;32.27;nan;100228.91;5046053;28;20651;-70
2023/07/12 09:13:40;;;;;;;5.10;3.73;;;31.90;73.10;;;31.73;nan;100230.13;5023602;28;20633;-67
2023/07/12 09:16:30;;;;;;;5.00;2.97;;;31.30;74.90;;;31.46;nan;100219.38;5020696;28;20636;-69
2023/07/12 09:19:23;;;;;;;3.87;3.57;;;30.90;75.60;;;31.40;nan;100228.50;5032717;28;20652;-67
2023/07/12 09:21:58;;;;;;;2.80;2.60;;;30.80;76.70;;;31.38;nan;100230.59;5029117;28;21225;-68
2023/07/12 09:24:31;;;;;;;5.50;3.00;;;30.80;76.40;;;31.38;nan;100233.31;5029315;28;20620;-67
2023/07/12 09:27:14;;;;;;;4.40;3.47;;;30.80;76.90;;;31.42;nan;100233.63;5030978;28;20616;-69
2023/07/12 09:29:41;;;;;;;3.57;2.33;;;30.80;77.70;;;31.52;nan;100226.44;5014777;28;20633;-67
2023/07/12 09:32:31;;;;;;;3.20;3.00;;;30.80;78.90;;;31.36;nan;100230.06;5007597;28;20672;-67
2023/07/12 09:35:03;;;;;;;3.40;3.20;;;30.80;77.40;;;31.25;nan;100236.41;5025204;28;20616;-69
2023/07/12 09:37:37;;;;;;;3.43;3.13;;;30.60;77.70;;;31.26;nan;100238.06;5028110;28;20675;-69
2023/07/12 09:40:16;;;;;;;3.17;2.93;;;30.60;77.90;;;31.31;nan;100232.69;5022621;28;20637;-69
2023/07/12 09:42:48;;;;;;;3.33;3.03;;;30.60;77.60;;;31.31;nan;100238.91;5022215;28;20645;-66
2023/07/12 09:45:15;;;;;;;3.23;2.93;;;30.70;78.30;;;31.32;nan;100242.41;5028013;28;20647;-70
2023/07/12 09:48:09;;;;;;;3.90;3.47;;;30.70;78.80;;;31.30;nan;100247.25;5021263;28;20672;-68
2023/07/12 09:51:13;;;;;;;2.23;2.00;;;30.70;79.70;;;31.14;nan;100253.53;5026876;28;20652;-67
2023/07/12 09:53:52;;;;;;;3.60;3.10;;;30.50;79.60;;;31.17;nan;100245.78;5010720;28;20941;-69
2023/07/12 09:56:47;;;;;;;5.13;4.00;;;30.60;79.60;;;31.42;nan;100250.63;5025590;28;20621;-70
2023/07/12 09:59:37;;;;;;;3.97;3.67;;;30.80;80.00;;;31.86;nan;100246.69;5019157;28;20640;-67
2023/07/12 10:02:21;;;;;;;2.83;2.63;;;31.30;78.50;;;32.42;nan;100255.16;5021855;28;20636;-67
2023/07/12 10:04:58;;;;;;;6.93;2.57;;;31.90;76.70;;;32.86;nan;100257.28;5014319;28;20625;-66
2023/07/12 10:07:45;;;;;;;2.77;2.57;;;32.50;74.20;;;32.86;nan;100256.50;5022503;28;20745;-68
2023/07/12 10:10:51;;;;;;;3.03;2.87;;;32.60;73.80;;;33.03;nan;100254.38;5015873;28;20636;-68
2023/07/12 10:13:56;;;;;;;3.20;2.37;;;32.50;74.00;;;32.94;nan;100261.38;5016741;28;20635;-67
2023/07/12 10:16:34;;;;;;;3.00;2.80;;;32.50;74.50;;;32.52;nan;100261.47;5019437;28;21000;-66
2023/07/12 10:19:35;;;;;;;10.23;3.40;;;32.00;75.00;;;32.35;nan;100254.59;5013652;28;20674;-68
2023/07/12 10:22:14;;;;;;;3.63;3.33;;;31.80;75.70;;;32.28;nan;100262.13;5025082;28;20625;-67
2023/07/12 10:24:45;;;;;;;3.50;3.20;;;31.70;76.10;;;32.07;nan;100253.09;5019606;28;20625;-67
2023/07/12 10:27:23;;;;;;;2.83;2.63;;;31.50;75.80;;;31.88;nan;100247.22;5015847;28;20669;-67
2023/07/12 10:30:28;;;;;;;3.40;3.10;;;31.30;76.40;;;31.87;nan;100245.63;5028533;28;20643;-68
2023/07/12 10:33:09;;;;;;;4.60;4.20;;;31.30;76.90;;;31.69;nan;100234.44;5019051;28;20664;-66
2023/07/12 10:35:45;;;;;;;6.00;5.17;;;31.10;77.40;;;31.58;nan;100243.50;5017884;28;20681;-69
2023/07/12 10:38:17;;;;;;;6.03;4.27;;;31.00;76.60;;;31.63;nan;100243.53;5039093;28;20660;-71
2023/07/12 10:40:57;;;;;;;6.77;4.80;;;31.00;77.00;;;31.65;nan;100239.50;5009134;28;20633;-67
2023/07/12 10:43:48;;;;;;;2.77;2.57;;;31.00;76.80;;;31.59;nan;100237.84;5013905;28;20631;-68